Time;durP1;ratioP1;P1;durP2;ratioP2;P2;SDS_P1;SDS_P2;PMS_P1;PMS_P2;Temp;Humidity;BMP_temperature;BMP_pressure;BME280_temperature;BME280_humidity;BME280_pressure;Samples;Min_cycle;Max_cycle;Signal;HPM_P1;HPM_P2
2022/11/29 00:00:07;;;;;;;;;22.75;16.00;;;;;;;;5099955;27;51108;-48
2022/11/29 00:02:52;;;;;;;;;17.50;15.00;;;;;;;;5100296;27;50985;-45
2022/11/29 00:05:36;;;;;;;;;16.00;15.50;;;;;;;;5085028;27;51153;-47
2022/11/29 00:08:22;;;;;;;;;16.50;12.50;;;;;;;;5073773;27;51282;-45
2022/11/29 00:14:30;;;;;;;;;14.25;13.25;;;;;;;;5079525;27;51237;-48
2022/11/29 00:17:15;;;;;;;;;19.00;14.50;;;;;;;;5096325;27;52402;-46
2022/11/29 00:19:59;;;;;;;;;18.00;14.25;;;;;;;;5099903;27;51205;-47
2022/11/29 00:22:43;;;;;;;;;20.00;14.00;;;;;;;;5099803;27;51552;-49
2022/11/29 00:25:28;;;;;;;;;17.75;16.00;;;;;;;;5103001;27;51024;-50
2022/11/29 00:28:12;;;;;;;;;16.00;15.25;;;;;;;;5103978;27;51149;-45
2022/11/29 00:30:56;;;;;;;;;16.00;14.00;;;;;;;;5103439;27;51443;-46
2022/11/29 00:33:41;;;;;;;;;14.25;12.25;;;;;;;;5103512;27;51128;-46
2022/11/29 00:36:26;;;;;;;;;19.50;15.00;;;;;;;;5074724;27;51103;-48
2022/11/29 00:39:11;;;;;;;;;17.00;13.75;;;;;;;;5019379;28;51142;-48
2022/11/29 00:41:55;;;;;;;;;16.75;15.00;;;;;;;;5018901;28;51112;-50
2022/11/29 00:44:39;;;;;;;;;18.00;14.00;;;;;;;;5018847;28;51179;-46
2022/11/29 00:47:24;;;;;;;;;16.75;13.75;;;;;;;;5018778;28;51162;-48
2022/11/29 00:50:08;;;;;;;;;19.25;16.75;;;;;;;;5018809;28;51122;-46
2022/11/29 00:52:53;;;;;;;;;21.00;18.00;;;;;;;;5019213;28;51142;-48
2022/11/29 00:55:38;;;;;;;;;19.75;14.50;;;;;;;;5018406;28;51052;-49
2022/11/29 00:58:22;;;;;;;;;16.00;13.00;;;;;;;;5019035;28;51208;-47
2022/11/29 01:01:07;;;;;;;;;16.00;13.00;;;;;;;;5018634;28;51062;-46
2022/11/29 01:03:52;;;;;;;;;15.00;13.00;;;;;;;;5019021;28;51260;-47
2022/11/29 01:06:36;;;;;;;;;18.75;16.00;;;;;;;;5018295;28;51092;-48
2022/11/29 01:09:20;;;;;;;;;17.75;13.00;;;;;;;;5008786;28;51176;-47
2022/11/29 01:12:05;;;;;;;;;18.00;15.75;;;;;;;;4998802;28;51476;-49
2022/11/29 01:14:49;;;;;;;;;15.50;15.50;;;;;;;;4998413;28;51043;-48
2022/11/29 01:17:34;;;;;;;;;16.50;12.75;;;;;;;;4998919;28;51039;-44
2022/11/29 01:20:19;;;;;;;;;17.00;14.50;;;;;;;;5010868;28;51344;-48
2022/11/29 01:23:03;;;;;;;;;17.50;14.25;;;;;;;;5018596;28;51072;-46
2022/11/29 01:25:55;;;;;;;;;15.75;14.25;;;;;;;;5018186;28;51131;-46
2022/11/29 01:28:40;;;;;;;;;14.00;9.00;;;;;;;;5017583;28;51198;-45
2022/11/29 01:31:25;;;;;;;;;16.25;12.75;;;;;;;;5018324;28;51190;-46
2022/11/29 01:34:10;;;;;;;;;15.75;13.25;;;;;;;;4997456;28;51060;-46
2022/11/29 01:36:55;;;;;;;;;21.50;18.25;;;;;;;;4998268;27;51046;-45
2022/11/29 01:39:39;;;;;;;;;19.25;16.25;;;;;;;;4998133;28;51104;-48
2022/11/29 01:42:23;;;;;;;;;20.25;14.25;;;;;;;;4996051;28;51195;-48
2022/11/29 01:45:34;;;;;;;;;21.50;16.75;;;;;;;;4998170;28;51124;-49
2022/11/29 01:48:22;;;;;;;;;18.75;16.25;;;;;;;;4998308;28;51418;-45
2022/11/29 01:51:06;;;;;;;;;14.25;13.75;;;;;;;;4996232;28;51120;-47
2022/11/29 01:53:51;;;;;;;;;15.75;14.75;;;;;;;;4998500;28;51025;-48
2022/11/29 01:56:36;;;;;;;;;23.50;17.00;;;;;;;;4998160;28;51394;-46
2022/11/29 01:59:25;;;;;;;;;18.50;15.00;;;;;;;;4998039;28;51179;-47
2022/11/29 02:02:23;;;;;;;;;17.50;15.75;;;;;;;;4998205;28;51486;-46
2022/11/29 02:05:08;;;;;;;;;14.50;11.50;;;;;;;;4997898;28;51140;-45
2022/11/29 02:07:53;;;;;;;;;20.25;15.50;;;;;;;;4995747;27;51094;-46
2022/11/29 02:10:47;;;;;;;;;18.75;16.75;;;;;;;;4994260;28;51280;-46
2022/11/29 02:13:40;;;;;;;;;19.75;15.75;;;;;;;;4998156;28;51190;-46
2022/11/29 02:16:34;;;;;;;;;19.75;16.75;;;;;;;;4997609;28;51052;-47
2022/11/29 02:19:27;;;;;;;;;16.75;14.00;;;;;;;;5000185;28;51140;-48
2022/11/29 02:22:12;;;;;;;;;20.00;16.75;;;;;;;;5017418;28;51127;-46
2022/11/29 02:24:59;;;;;;;;;18.75;15.00;;;;;;;;5017511;28;51123;-45
2022/11/29 02:27:44;;;;;;;;;17.00;14.00;;;;;;;;5017534;28;51312;-46
2022/11/29 02:30:34;;;;;;;;;20.50;18.25;;;;;;;;5003238;28;51092;-48
2022/11/29 02:33:25;;;;;;;;;22.00;14.50;;;;;;;;4997838;28;51095;-46
2022/11/29 02:36:15;;;;;;;;;19.75;14.50;;;;;;;;4997187;28;51663;-47
2022/11/29 02:39:20;;;;;;;;;15.50;14.25;;;;;;;;4997496;28;51099;-46
2022/11/29 02:42:04;;;;;;;;;15.25;13.50;;;;;;;;4993452;28;51157;-45
2022/11/29 02:45:05;;;;;;;;;19.00;15.25;;;;;;;;4997787;28;51124;-48
2022/11/29 02:48:07;;;;;;;;;17.75;11.00;;;;;;;;4996345;28;51435;-47
2022/11/29 02:50:56;;;;;;;;;21.25;13.75;;;;;;;;5017186;28;51290;-48
2022/11/29 02:53:43;;;;;;;;;15.50;14.00;;;;;;;;5017460;28;51421;-45
2022/11/29 02:56:33;;;;;;;;;20.00;16.75;;;;;;;;5016966;28;50996;-46
2022/11/29 02:59:36;;;;;;;;;16.50;13.50;;;;;;;;5013948;28;52241;-49
2022/11/29 03:02:39;;;;;;;;;17.50;14.00;;;;;;;;5016876;28;51457;-46
2022/11/29 03:05:43;;;;;;;;;14.25;12.75;;;;;;;;5017173;28;51063;-46
2022/11/29 03:08:36;;;;;;;;;22.25;16.00;;;;;;;;5009125;27;51201;-48
2022/11/29 03:11:33;;;;;;;;;19.75;15.50;;;;;;;;4997165;28;51088;-47
2022/11/29 03:14:17;;;;;;;;;18.00;15.00;;;;;;;;4996623;28;51600;-47
2022/11/29 03:17:20;;;;;;;;;18.00;12.75;;;;;;;;4996971;28;51138;-45
2022/11/29 03:20:23;;;;;;;;;18.75;15.50;;;;;;;;4997754;28;51450;-47
2022/11/29 03:23:20;;;;;;;;;20.25;15.25;;;;;;;;5016638;28;51078;-45
2022/11/29 03:26:09;;;;;;;;;19.25;19.00;;;;;;;;5016992;28;51158;-45
2022/11/29 03:29:05;;;;;;;;;21.75;18.00;;;;;;;;5016551;28;51369;-49
2022/11/29 03:32:01;;;;;;;;;27.00;19.75;;;;;;;;5016764;28;51564;-46
2022/11/29 03:34:57;;;;;;;;;20.50;18.00;;;;;;;;5016441;28;51246;-46
2022/11/29 03:37:54;;;;;;;;;24.50;19.50;;;;;;;;5016917;27;50971;-48
2022/11/29 03:40:44;;;;;;;;;25.00;19.50;;;;;;;;5016144;28;51889;-48
2022/11/29 03:43:35;;;;;;;;;19.75;18.25;;;;;;;;5016380;28;51165;-46
2022/11/29 03:46:26;;;;;;;;;20.75;19.00;;;;;;;;5016355;28;51083;-45
2022/11/29 03:49:30;;;;;;;;;21.25;18.75;;;;;;;;5016433;28;51196;-46
2022/11/29 03:52:17;;;;;;;;;22.00;18.25;;;;;;;;5016670;28;51081;-47
2022/11/29 03:55:02;;;;;;;;;24.75;20.25;;;;;;;;4996331;28;51603;-48
2022/11/29 03:57:52;;;;;;;;;24.25;21.00;;;;;;;;4997226;28;51006;-48
2022/11/29 04:00:56;;;;;;;;;17.75;16.25;;;;;;;;4999687;28;51084;-46
2022/11/29 04:03:59;;;;;;;;;21.50;16.75;;;;;;;;4984382;27;51014;-48
2022/11/29 04:06:54;;;;;;;;;26.75;20.75;;;;;;;;4998121;27;51138;-48
2022/11/29 04:09:55;;;;;;;;;25.25;20.00;;;;;;;;4997192;27;51134;-44
2022/11/29 04:12:58;;;;;;;;;23.00;21.00;;;;;;;;4999752;28;50982;-48
2022/11/29 04:15:52;;;;;;;;;23.50;21.00;;;;;;;;4999589;28;51222;-48
2022/11/29 04:18:42;;;;;;;;;25.25;23.25;;;;;;;;4998395;27;51168;-48
2022/11/29 04:21:29;;;;;;;;;26.50;22.25;;;;;;;;4999534;28;51134;-48
2022/11/29 04:24:20;;;;;;;;;31.75;25.00;;;;;;;;4999762;28;51519;-45
2022/11/29 04:27:17;;;;;;;;;24.75;20.00;;;;;;;;4999316;28;51405;-46
2022/11/29 04:30:07;;;;;;;;;32.50;27.00;;;;;;;;4998574;27;51102;-44
2022/11/29 04:33:00;;;;;;;;;32.75;27.75;;;;;;;;4995567;28;51972;-48
2022/11/29 04:35:53;;;;;;;;;32.50;28.00;;;;;;;;4999285;27;51126;-46
2022/11/29 04:38:57;;;;;;;;;26.25;22.75;;;;;;;;4998088;27;51165;-48
2022/11/29 04:41:44;;;;;;;;;31.75;27.25;;;;;;;;4999142;28;50983;-46
2022/11/29 04:44:47;;;;;;;;;31.50;29.25;;;;;;;;4999520;28;51077;-47
2022/11/29 04:47:49;;;;;;;;;34.75;29.75;;;;;;;;5018894;28;51556;-45
2022/11/29 04:50:51;;;;;;;;;32.25;29.50;;;;;;;;5000934;27;51144;-45
2022/11/29 04:53:51;;;;;;;;;36.25;30.25;;;;;;;;4998830;28;51023;-46
2022/11/29 04:56:45;;;;;;;;;34.00;27.50;;;;;;;;4999185;28;51070;-45
2022/11/29 04:59:47;;;;;;;;;40.75;30.75;;;;;;;;4997709;27;51366;-45
2022/11/29 05:02:50;;;;;;;;;44.50;30.25;;;;;;;;5018925;28;51206;-47
2022/11/29 05:05:50;;;;;;;;;41.75;32.75;;;;;;;;5018922;28;51531;-47
2022/11/29 05:08:38;;;;;;;;;42.00;32.00;;;;;;;;5007269;27;51122;-46
2022/11/29 05:11:41;;;;;;;;;34.00;31.25;;;;;;;;4993274;28;51108;-46
2022/11/29 05:14:34;;;;;;;;;36.25;29.75;;;;;;;;4998795;28;51145;-47
2022/11/29 05:17:18;;;;;;;;;37.75;32.00;;;;;;;;4998879;28;51405;-47
2022/11/29 05:20:12;;;;;;;;;32.75;30.75;;;;;;;;4997480;27;51061;-46
2022/11/29 05:23:00;;;;;;;;;38.00;32.25;;;;;;;;4998839;28;51093;-46
2022/11/29 05:25:51;;;;;;;;;42.25;33.00;;;;;;;;4998390;28;50967;-44
2022/11/29 05:28:42;;;;;;;;;47.75;37.75;;;;;;;;4997409;27;51184;-47
2022/11/29 05:31:45;;;;;;;;;40.50;32.50;;;;;;;;4998573;28;51541;-49
2022/11/29 05:34:39;;;;;;;;;45.75;33.25;;;;;;;;4998485;28;51068;-48
2022/11/29 05:37:44;;;;;;;;;48.00;36.25;;;;;;;;4998413;28;51255;-45
2022/11/29 05:40:58;;;;;;;;;45.00;36.75;;;;;;;;4993337;28;51201;-48
2022/11/29 05:43:44;;;;;;;;;50.50;35.50;;;;;;;;4938125;28;53564;-45
2022/11/29 05:46:32;;;;;;;;;47.00;34.75;;;;;;;;4998044;28;51097;-47
2022/11/29 05:49:20;;;;;;;;;48.75;38.75;;;;;;;;4997412;27;51120;-49
2022/11/29 05:52:17;;;;;;;;;50.25;39.75;;;;;;;;5008899;28;51290;-48
2022/11/29 05:55:05;;;;;;;;;51.00;40.50;;;;;;;;5017866;28;51267;-46
2022/11/29 05:58:07;;;;;;;;;52.25;40.00;;;;;;;;5015830;27;51188;-47
2022/11/29 06:00:56;;;;;;;;;51.75;40.00;;;;;;;;4997852;28;51124;-48
2022/11/29 06:03:49;;;;;;;;;48.75;40.00;;;;;;;;4998541;28;51167;-45
2022/11/29 06:06:33;;;;;;;;;48.75;38.75;;;;;;;;4997953;28;51208;-46
2022/11/29 06:09:25;;;;;;;;;53.50;41.50;;;;;;;;4993898;27;51381;-46
2022/11/29 06:12:18;;;;;;;;;50.00;41.25;;;;;;;;4997723;28;51120;-45
2022/11/29 06:15:07;;;;;;;;;50.00;40.50;;;;;;;;4998113;28;51240;-50
2022/11/29 06:18:06;;;;;;;;;49.25;39.25;;;;;;;;4997691;28;51531;-46
2022/11/29 06:20:53;;;;;;;;;51.75;41.25;;;;;;;;4997934;28;51082;-45
2022/11/29 06:23:47;;;;;;;;;59.00;42.75;;;;;;;;4997956;28;51575;-49
2022/11/29 06:26:37;;;;;;;;;58.00;44.00;;;;;;;;4997474;28;51141;-46
2022/11/29 06:29:41;;;;;;;;;56.50;46.75;;;;;;;;4997728;28;51019;-46
2022/11/29 06:32:28;;;;;;;;;60.75;47.00;;;;;;;;4996696;28;51086;-49
2022/11/29 06:35:32;;;;;;;;;54.25;42.50;;;;;;;;5007005;28;51131;-46
2022/11/29 06:38:16;;;;;;;;;56.00;44.00;;;;;;;;4997172;28;51014;-47
2022/11/29 06:41:00;;;;;;;;;55.75;42.50;;;;;;;;4997630;28;50986;-47
2022/11/29 06:43:45;;;;;;;;;54.75;42.50;;;;;;;;4997178;28;51582;-47
2022/11/29 06:46:38;;;;;;;;;63.00;48.00;;;;;;;;4997262;28;50963;-46
2022/11/29 06:49:26;;;;;;;;;59.50;43.25;;;;;;;;4997274;28;51630;-45
2022/11/29 06:52:19;;;;;;;;;61.00;49.00;;;;;;;;4997120;28;51223;-47
2022/11/29 06:55:12;;;;;;;;;66.50;50.00;;;;;;;;4975529;28;51541;-45
2022/11/29 06:58:31;;;;;;;;;62.75;50.50;;;;;;;;4973532;28;51404;-46
2022/11/29 07:01:15;;;;;;;;;64.75;49.75;;;;;;;;4977136;28;51074;-47
2022/11/29 07:04:00;;;;;;;;;57.00;46.50;;;;;;;;4977217;28;50969;-44
2022/11/29 07:06:45;;;;;;;;;61.75;48.00;;;;;;;;4995239;28;51482;-45
2022/11/29 07:09:33;;;;;;;;;61.50;47.50;;;;;;;;4980568;28;51781;-48
2022/11/29 07:12:18;;;;;;;;;51.50;39.75;;;;;;;;4977021;28;51193;-44
2022/11/29 07:15:03;;;;;;;;;42.75;36.00;;;;;;;;4991151;27;51251;-47
2022/11/29 07:17:47;;;;;;;;;29.25;24.25;;;;;;;;4975766;28;51480;-50
2022/11/29 07:20:42;;;;;;;;;28.50;24.75;;;;;;;;4976675;28;51132;-44
2022/11/29 07:23:35;;;;;;;;;28.25;23.75;;;;;;;;4977070;28;51157;-45
